createdAt,value
2022-08-05T00:02:20.857Z,98838.78
2022-08-05T00:06:29.041Z,98842.09
2022-08-05T00:10:34.040Z,98836.50
2022-08-05T00:14:37.048Z,98862.84
2022-08-05T00:18:42.328Z,98855.19
2022-08-05T00:22:47.189Z,98899.63
2022-08-05T00:27:00.545Z,98934.91
2022-08-05T00:31:04.332Z,98954.75
2022-08-05T00:35:07.739Z,98976.25
2022-08-05T00:39:13.793Z,98969.44
2022-08-05T00:43:15.912Z,98963.19
2022-08-05T00:47:18.309Z,98949.69
2022-08-05T00:51:51.481Z,98963.03
2022-08-05T00:55:43.905Z,99023.03
2022-08-05T00:59:45.513Z,99048.75
2022-08-05T01:03:50.040Z,99041.25
2022-08-05T01:08:30.647Z,99022.06
2022-08-05T01:12:19.295Z,98980.06
2022-08-05T01:16:26.657Z,98947.69
2022-08-05T01:20:45.894Z,98942.91
2022-08-05T01:24:50.370Z,98947.59
2022-08-05T01:29:08.445Z,98890.94
2022-08-05T01:33:13.077Z,98871.69
2022-08-05T01:37:44.362Z,98861.28
2022-08-05T01:41:47.790Z,98864.50
2022-08-05T01:45:56.209Z,98865.34
2022-08-05T01:50:02.913Z,98878.59
2022-08-05T01:54:08.365Z,98902.44
2022-08-05T01:58:40.690Z,98939.88
2022-08-05T02:02:38.165Z,99019.47
2022-08-05T02:06:48.101Z,99091.72
2022-08-05T02:10:54.037Z,99153.25
2022-08-05T02:15:06.921Z,99141.50
2022-08-05T02:19:34.317Z,99111.16
2022-08-05T02:23:40.604Z,99066.53
2022-08-05T02:27:59.520Z,99042.41
2022-08-05T02:32:04.864Z,99052.75
2022-08-05T02:36:13.708Z,99070.31
2022-08-05T02:40:18.630Z,99072.84
2022-08-05T02:44:23.038Z,99100.59
2022-08-05T02:48:29.710Z,99108.94
2022-08-05T02:52:32.737Z,99107.25
2022-08-05T02:56:36.669Z,99122.56
2022-08-05T03:00:46.146Z,99138.34
2022-08-05T03:04:53.282Z,99140.28
2022-08-05T03:08:55.239Z,99137.31
2022-08-05T03:17:07.348Z,99147.13
2022-08-05T03:21:11.769Z,99136.34
2022-08-05T03:25:33.078Z,99120.78
2022-08-05T03:29:45.894Z,99130.72
2022-08-05T03:33:57.948Z,99152.84
2022-08-05T03:38:02.591Z,99161.00
2022-08-05T03:42:04.405Z,99170.88
2022-08-05T03:46:08.317Z,99161.88
2022-08-05T03:50:10.203Z,99156.66
2022-08-05T03:55:34.714Z,99146.63
2022-08-05T03:58:59.914Z,99150.81
2022-08-05T04:03:04.511Z,99172.78
2022-08-05T04:07:07.197Z,99188.97
2022-08-05T04:11:09.962Z,99185.47
2022-08-05T04:15:15.503Z,99192.09
2022-08-05T04:19:18.274Z,99206.44
2022-08-05T04:24:04.909Z,99180.88
2022-08-05T04:27:57.275Z,99205.13
2022-08-05T04:32:00.415Z,99195.22
2022-08-05T04:36:15.789Z,99190.69
2022-08-05T04:40:22.825Z,99164.75
2022-08-05T04:44:29.394Z,99147.72
2022-08-05T04:48:31.802Z,99137.00
2022-08-05T04:52:34.070Z,99129.06
2022-08-05T04:56:36.813Z,99127.53
2022-08-05T05:00:39.565Z,99109.03
2022-08-05T05:04:47.666Z,99117.91
2022-08-05T05:08:51.325Z,99099.41
2022-08-05T05:12:54.487Z,99120.25
2022-08-05T05:16:56.697Z,99111.28
2022-08-05T05:20:59.431Z,99114.94
2022-08-05T05:25:16.543Z,99142.69
2022-08-05T05:29:18.641Z,99121.41
2022-08-05T05:33:23.395Z,99141.69
2022-08-05T05:37:37.358Z,99173.28
2022-08-05T05:41:54.105Z,99173.53
2022-08-05T05:45:56.663Z,99169.25
2022-08-05T05:50:01.439Z,99168.09
2022-08-05T05:54:03.673Z,99182.13
2022-08-05T05:58:05.377Z,99184.00
2022-08-05T06:02:07.181Z,99200.63
2022-08-05T06:06:09.284Z,99188.09
2022-08-05T06:10:10.929Z,99152.78
2022-08-05T06:14:12.524Z,99166.44
2022-08-05T06:18:14.733Z,99206.22
2022-08-05T06:22:23.777Z,99220.13
2022-08-05T06:26:25.992Z,99233.41
2022-08-05T06:30:33.446Z,99252.88
2022-08-05T06:34:35.296Z,99245.97
2022-08-05T06:38:37.205Z,99243.25
2022-08-05T06:42:39.744Z,99223.91
2022-08-05T06:46:41.357Z,99197.28
2022-08-05T06:50:43.973Z,99210.50
2022-08-05T06:54:53.349Z,99217.41
2022-08-05T06:58:55.595Z,99218.22
2022-08-05T07:02:57.475Z,99201.75
2022-08-05T07:06:58.893Z,99204.22
2022-08-05T07:11:00.620Z,99197.75
2022-08-05T07:15:34.344Z,99177.34
2022-08-05T07:24:11.335Z,99177.13
2022-08-05T07:28:17.185Z,99199.44
2022-08-05T07:32:18.927Z,99216.28
2022-08-05T07:36:27.888Z,99210.84
2022-08-05T07:40:33.140Z,99210.00
2022-08-05T07:44:36.755Z,99205.19
2022-08-05T07:49:02.902Z,99212.47
2022-08-05T07:53:00.130Z,99219.09
2022-08-05T07:57:18.193Z,99228.25
2022-08-05T08:01:27.637Z,99224.00
2022-08-05T08:05:31.448Z,99213.91
2022-08-05T08:09:41.040Z,99220.91
2022-08-05T08:13:49.534Z,99246.09
2022-08-05T08:18:05.053Z,99233.91
2022-08-05T08:22:09.873Z,99248.25
2022-08-05T08:26:17.425Z,99271.63
2022-08-05T08:30:37.639Z,99277.69
2022-08-05T08:34:49.234Z,99281.13
2022-08-05T08:38:55.130Z,99272.41
2022-08-05T08:42:57.092Z,99266.00
2022-08-05T08:48:06.328Z,99276.59
2022-08-05T08:52:03.313Z,99280.31
2022-08-05T08:56:08.097Z,99275.84
2022-08-05T09:00:10.373Z,99290.44
2022-08-05T09:04:17.631Z,99302.50
2022-08-05T09:08:19.435Z,99327.69
2022-08-05T09:12:28.745Z,99311.50
2022-08-05T09:16:31.149Z,99296.78
2022-08-05T09:20:37.250Z,99315.63
2022-08-05T09:24:40.029Z,99314.06
2022-08-05T09:28:41.530Z,99325.81
2022-08-05T09:32:46.350Z,99315.84
2022-08-05T09:36:56.221Z,99298.19
2022-08-05T09:41:07.605Z,99296.38
2022-08-05T09:45:49.642Z,99293.97
2022-08-05T09:49:40.285Z,99298.50
2022-08-05T09:53:59.420Z,99296.75
2022-08-05T09:58:13.676Z,99298.84
2022-08-05T10:02:30.699Z,99281.22
2022-08-05T10:06:34.031Z,99301.16
2022-08-05T10:10:48.209Z,99305.72
2022-08-05T10:14:54.342Z,99323.63
2022-08-05T10:18:56.822Z,99308.56
2022-08-05T10:22:59.617Z,99326.28
2022-08-05T10:27:01.433Z,99330.53
2022-08-05T10:32:50.933Z,99342.84
2022-08-05T10:35:33.646Z,99341.59
2022-08-05T10:39:58.942Z,99345.13
2022-08-05T10:44:09.339Z,99354.13
2022-08-05T10:48:35.293Z,99354.13
2022-08-05T10:52:58.774Z,99351.56
2022-08-05T10:57:00.655Z,99349.84
2022-08-05T11:01:06.432Z,99352.53
2022-08-05T11:05:10.626Z,99356.63
2022-08-05T11:09:24.430Z,99368.00
2022-08-05T11:13:54.907Z,99370.38
2022-08-05T11:18:24.334Z,99370.06
2022-08-05T11:22:39.214Z,99381.56
2022-08-05T11:26:43.851Z,99385.16
2022-08-05T11:30:58.319Z,99393.03
2022-08-05T11:35:00.165Z,99407.16
2022-08-05T11:39:01.930Z,99409.44
2022-08-05T11:43:03.384Z,99416.66
2022-08-05T11:47:10.482Z,99417.47
2022-08-05T11:51:44.526Z,99414.28
2022-08-05T11:55:36.772Z,99421.28
2022-08-05T11:59:42.037Z,99425.00
2022-08-05T12:03:55.777Z,99424.09
2022-08-05T12:08:03.823Z,99418.63
2022-08-05T12:12:12.452Z,99402.53
2022-08-05T12:16:19.747Z,99385.63
2022-08-05T12:20:33.699Z,99390.88
2022-08-05T12:24:40.376Z,99405.94
2022-08-05T12:28:45.132Z,99410.84
2022-08-05T12:32:53.544Z,99392.53
2022-08-05T12:37:00.876Z,99398.47
2022-08-05T12:41:13.089Z,99389.78
2022-08-05T12:45:15.294Z,99396.63
2022-08-05T12:49:19.107Z,99395.03
2022-08-05T12:53:24.098Z,99396.41
2022-08-05T12:58:49.664Z,99407.06
2022-08-05T13:02:07.914Z,99395.16
2022-08-05T13:06:16.741Z,99401.28
2022-08-05T13:10:19.710Z,99409.72
2022-08-05T13:14:35.847Z,99405.41
2022-08-05T13:18:39.242Z,99403.28
2022-08-05T13:22:49.853Z,99397.81
2022-08-05T13:26:52.256Z,99400.09
2022-08-05T13:30:53.845Z,99392.22
2022-08-05T13:34:55.410Z,99382.84
2022-08-05T13:38:56.821Z,99393.06
2022-08-05T13:42:58.467Z,99396.63
2022-08-05T13:47:04.971Z,99400.47
2022-08-05T13:51:13.933Z,99396.94
2022-08-05T13:55:41.458Z,99399.06
2022-08-05T13:59:38.429Z,99400.09
2022-08-05T14:04:18.376Z,99403.44
2022-08-05T14:08:27.880Z,99405.50
2022-08-05T14:12:33.901Z,99401.78
2022-08-05T14:16:35.575Z,99407.53
2022-08-05T14:20:37.007Z,99403.16
2022-08-05T14:24:39.835Z,99413.81
2022-08-05T14:28:52.256Z,99410.22
2022-08-05T14:32:54.035Z,99414.38
2022-08-05T14:36:55.784Z,99408.84
2022-08-05T14:40:57.202Z,99404.88
2022-08-05T14:44:59.353Z,99400.38
2022-08-05T14:49:06.510Z,99403.97
2022-08-05T14:53:09.198Z,99396.09
2022-08-05T14:57:13.634Z,99407.28
2022-08-05T15:01:18.181Z,99395.03
2022-08-05T15:05:30.157Z,99399.59
2022-08-05T15:09:53.945Z,99394.28
2022-08-05T15:13:56.352Z,99391.94
2022-08-05T15:18:03.702Z,99398.38
2022-08-05T15:22:08.988Z,99391.44
2022-08-05T15:26:10.450Z,99395.69
2022-08-05T15:30:14.199Z,99392.75
2022-08-05T15:34:31.381Z,99407.41
2022-08-05T15:38:41.045Z,99412.91
2022-08-05T15:42:54.051Z,99416.22
2022-08-05T15:47:01.218Z,99422.44
2022-08-05T15:51:05.765Z,99427.25
2022-08-05T15:55:10.637Z,99423.78
2022-08-05T15:59:21.799Z,99428.94
2022-08-05T16:03:23.901Z,99436.19
2022-08-05T16:07:25.374Z,99434.41
2022-08-05T16:11:39.880Z,99435.78
2022-08-05T16:15:42.418Z,99443.38
2022-08-05T16:20:03.079Z,99452.41
2022-08-05T16:24:12.782Z,99449.84
2022-08-05T16:28:28.345Z,99451.34
2022-08-05T16:32:29.984Z,99457.34
2022-08-05T16:36:31.389Z,99461.50
2022-08-05T16:40:32.859Z,99462.38
2022-08-05T16:44:34.465Z,99463.88
2022-08-05T16:48:39.288Z,99460.47
2022-08-05T16:52:45.972Z,99472.66
2022-08-05T16:56:47.846Z,99472.59
2022-08-05T17:00:53.759Z,99481.13
2022-08-05T17:04:56.442Z,99477.16
2022-08-05T17:08:57.828Z,99478.09
2022-08-05T17:13:00.564Z,99478.84
2022-08-05T17:17:03.678Z,99477.81
2022-08-05T17:21:06.301Z,99479.41
2022-08-05T17:25:09.541Z,99477.91
2022-08-05T17:29:33.502Z,99482.56
2022-08-05T17:33:48.409Z,99482.84
2022-08-05T17:37:52.437Z,99488.59
2022-08-05T17:42:17.825Z,99490.22
2022-08-05T17:46:23.716Z,99493.50
2022-08-05T17:50:30.005Z,99491.44
2022-08-05T17:54:33.779Z,99493.09
2022-08-05T17:58:37.701Z,99491.66
2022-08-05T18:02:39.325Z,99493.81
2022-08-05T18:06:40.906Z,99504.88
2022-08-05T18:10:47.291Z,99509.06
2022-08-05T18:14:51.638Z,99522.69
2022-08-05T18:18:53.721Z,99530.97
2022-08-05T18:22:57.521Z,99533.88
2022-08-05T18:26:59.808Z,99537.69
2022-08-05T18:31:01.187Z,99548.78
2022-08-05T18:35:03.261Z,99553.84
2022-08-05T18:39:09.674Z,99559.53
2022-08-05T18:43:24.261Z,99560.97
2022-08-05T18:47:34.318Z,99563.50
2022-08-05T18:52:05.203Z,99563.03
2022-08-05T18:56:12.417Z,99579.63
2022-08-05T19:00:20.476Z,99575.88
2022-08-05T19:04:22.570Z,99583.50
2022-08-05T19:08:30.225Z,99587.91
2022-08-05T19:12:33.658Z,99600.53
2022-08-05T19:16:46.718Z,99605.97
2022-08-05T19:20:52.268Z,99630.53
2022-08-05T19:25:00.161Z,99642.09
2022-08-05T19:29:02.106Z,99655.00
2022-08-05T19:33:16.685Z,99657.09
2022-08-05T19:37:18.429Z,99672.22
2022-08-05T19:42:05.591Z,99681.28
2022-08-05T19:45:54.385Z,99687.72
2022-08-05T19:49:57.221Z,99702.03
2022-08-05T19:54:04.290Z,99711.09
2022-08-05T19:58:28.899Z,99711.91
2022-08-05T20:02:32.098Z,99726.34
2022-08-05T20:06:37.586Z,99738.88
2022-08-05T20:10:49.378Z,99744.41
2022-08-05T20:14:54.817Z,99746.41
2022-08-05T20:18:56.537Z,99765.09
2022-08-05T20:22:58.447Z,99766.22
2022-08-05T20:27:00.121Z,99766.28
2022-08-05T20:31:01.845Z,99785.84
2022-08-05T20:35:03.490Z,99787.91
2022-08-05T20:39:05.016Z,99795.22
2022-08-05T20:43:07.602Z,99790.47
2022-08-05T20:47:09.187Z,99805.50
2022-08-05T20:51:11.483Z,99810.28
2022-08-05T20:55:56.301Z,99813.13
2022-08-05T21:00:10.531Z,99821.50
2022-08-05T21:03:57.763Z,99837.13
2022-08-05T21:07:59.452Z,99839.78
2022-08-05T21:12:10.518Z,99844.28
2022-08-05T21:16:13.541Z,99847.19
2022-08-05T21:20:15.337Z,99850.91
2022-08-05T21:24:35.326Z,99865.16
2022-08-05T21:28:36.878Z,99866.19
2022-08-05T21:32:40.089Z,99867.16
2022-08-05T21:36:48.968Z,99865.59
2022-08-05T21:40:50.546Z,99865.91
2022-08-05T21:44:52.058Z,99866.91
2022-08-05T21:48:56.739Z,99854.13
2022-08-05T21:53:08.522Z,99863.31
2022-08-05T21:57:33.727Z,99867.41
2022-08-05T22:01:35.634Z,99861.75
2022-08-05T22:05:48.656Z,99866.44
2022-08-05T22:09:50.835Z,99864.91
2022-08-05T22:14:33.029Z,99871.81
2022-08-05T22:18:14.466Z,99875.69
2022-08-05T22:22:16.206Z,99887.25
2022-08-05T22:26:49.902Z,99892.31
2022-08-05T22:30:56.027Z,99891.84
2022-08-05T22:34:57.998Z,99890.38
2022-08-05T22:39:04.382Z,99896.66
2022-08-05T22:43:11.372Z,99901.19
2022-08-05T22:47:14.924Z,99904.66
2022-08-05T22:52:04.812Z,99908.19
2022-08-05T22:55:56.643Z,99915.50
2022-08-05T22:59:59.010Z,99918.34
2022-08-05T23:04:00.488Z,99918.34
2022-08-05T23:08:03.740Z,99909.00
2022-08-05T23:12:06.120Z,99918.72
2022-08-05T23:16:08.334Z,99925.78
2022-08-05T23:20:17.398Z,99922.47
2022-08-05T23:24:19.385Z,99921.69
2022-08-05T23:28:21.955Z,99924.47
2022-08-05T23:36:44.572Z,99930.00
2022-08-05T23:40:49.771Z,99926.63
2022-08-05T23:44:54.284Z,99931.97
2022-08-05T23:49:00.817Z,99937.41
2022-08-05T23:53:03.414Z,99942.72
2022-08-05T23:57:05.465Z,99942.03
